Terminal Aerodrome Forecast
Issued by NWS

Current Version | Previous Version | Text Only | Print | Product List | Glossary On
Versions: 1 2 3 4 5 6 7 8 9 10 11 12 13 14 15 16 17 18 19 20 21 22 23 24 25 26 27 28 29 30 31 32 33 34 35
000
FTUS42 KRAH 271120
TAFRWI
TAF
KRWI 271120Z 2712/2812 17004KT 6SM BR SCT009 BKN015
      TEMPO 2712/2714 3SM BR BKN007
     FM271500 20008KT P6SM BKN050
     FM281000 21003KT P6SM SCT007 BKN010
      TEMPO 2810/2812 4SM BR BKN007=

USA.gov is the U.S. government's official web portal to all federal, state and local government web resources and services.